Time;durP1;ratioP1;P1;durP2;ratioP2;P2;SDS_P1;SDS_P2;PMS_P1;PMS_P2;Temp;Humidity;BMP_temperature;BMP_pressure;BME280_temperature;BME280_humidity;BME280_pressure;Samples;Min_cycle;Max_cycle;Signal;HPM_P1;HPM_P2
2021/06/23 00:02:23;;;;;;;23.53;21.03;;;16.00;99.90;;;;;;5097690;28;20245;-72
2021/06/23 00:04:50;;;;;;;26.13;23.20;;;16.00;99.90;;;;;;5099556;28;20185;-72
2021/06/23 00:07:15;;;;;;;24.80;22.10;;;16.10;99.90;;;;;;5098770;28;20169;-72
2021/06/23 00:09:41;;;;;;;26.43;22.20;;;16.10;99.90;;;;;;5097122;28;20776;-72
2021/06/23 00:12:13;;;;;;;26.70;23.13;;;15.90;99.90;;;;;;5096931;28;20176;-72
2021/06/23 00:14:39;;;;;;;26.87;23.07;;;15.80;99.90;;;;;;5096699;28;20892;-72
2021/06/23 00:17:04;;;;;;;26.47;22.63;;;15.90;99.90;;;;;;5088197;28;20428;-72
2021/06/23 00:19:30;;;;;;;23.77;21.10;;;15.90;99.90;;;;;;5079691;28;20667;-72
2021/06/23 00:21:56;;;;;;;29.53;24.03;;;15.80;99.90;;;;;;5099042;28;20181;-72
2021/06/23 00:24:21;;;;;;;24.43;21.93;;;15.80;99.90;;;;;;5099693;28;20232;-72
2021/06/23 00:26:47;;;;;;;27.13;23.10;;;15.80;99.90;;;;;;5099824;28;20237;-73
2021/06/23 00:29:12;;;;;;;25.63;22.93;;;15.70;99.90;;;;;;5099520;28;20225;-72
2021/06/23 00:31:38;;;;;;;27.23;23.20;;;15.80;99.90;;;;;;5099836;28;20166;-72
2021/06/23 00:34:06;;;;;;;28.13;23.43;;;15.70;99.90;;;;;;5098942;28;20173;-72
2021/06/23 00:36:32;;;;;;;26.70;23.83;;;15.70;99.90;;;;;;5099123;28;20189;-73
2021/06/23 00:38:57;;;;;;;29.60;22.30;;;15.60;99.90;;;;;;5099899;28;20447;-72
2021/06/23 00:41:23;;;;;;;29.50;22.77;;;15.60;99.90;;;;;;5085249;28;20327;-72
2021/06/23 00:43:49;;;;;;;26.17;23.40;;;15.60;99.90;;;;;;5075775;28;20185;-72
2021/06/23 00:46:16;;;;;;;30.10;23.90;;;15.60;99.90;;;;;;5075821;28;20937;-72
2021/06/23 00:48:41;;;;;;;28.37;23.30;;;15.60;99.90;;;;;;5077075;28;20515;-72
2021/06/23 00:51:07;;;;;;;26.30;23.33;;;15.60;99.90;;;;;;5075810;28;20422;-72
2021/06/23 00:53:33;;;;;;;26.73;22.93;;;15.60;99.90;;;;;;5075672;28;20495;-72
2021/06/23 00:56:01;;;;;;;25.23;22.47;;;15.60;99.90;;;;;;5075795;28;20217;-72
2021/06/23 00:58:27;;;;;;;25.45;22.63;;;15.60;99.90;;;;;;5075131;28;20453;-72
2021/06/23 01:00:55;;;;;;;24.00;21.40;;;15.60;99.90;;;;;;5093463;28;20227;-72
2021/06/23 01:03:21;;;;;;;22.60;20.30;;;15.70;99.90;;;;;;5095390;28;20407;-72
2021/06/23 01:05:48;;;;;;;24.83;22.13;;;15.70;99.90;;;;;;5095482;28;20415;-72
2021/06/23 01:08:14;;;;;;;28.20;20.87;;;15.70;99.90;;;;;;5095972;28;20399;-72
2021/06/23 01:10:39;;;;;;;23.73;19.67;;;15.80;99.90;;;;;;5093835;28;20434;-72
2021/06/23 01:13:25;;;;;;;21.37;19.17;;;15.70;99.90;;;;;;5095600;28;20177;-72
2021/06/23 01:15:53;;;;;;;22.80;19.20;;;15.60;99.90;;;;;;5095628;28;20205;-72
2021/06/23 01:18:19;;;;;;;25.23;19.87;;;15.60;99.90;;;;;;5094952;28;20507;-72
2021/06/23 01:20:46;;;;;;;20.70;18.60;;;15.40;99.90;;;;;;5089948;28;20551;-72
2021/06/23 01:23:14;;;;;;;20.97;18.77;;;15.40;99.90;;;;;;5075918;28;20622;-72
2021/06/23 01:25:41;;;;;;;19.73;17.83;;;15.40;99.90;;;;;;5075976;28;20963;-72
2021/06/23 01:28:06;;;;;;;20.20;18.17;;;15.50;99.90;;;;;;5076724;28;20411;-72
2021/06/23 01:30:32;;;;;;;20.37;18.30;;;15.50;99.90;;;;;;5095387;28;20403;-72
2021/06/23 01:32:58;;;;;;;19.10;17.30;;;15.50;99.90;;;;;;5094966;28;20188;-72
2021/06/23 01:35:25;;;;;;;18.73;16.60;;;15.50;99.90;;;;;;5095288;28;20189;-72
2021/06/23 01:37:50;;;;;;;21.50;17.87;;;15.60;99.90;;;;;;5095169;28;20433;-72
2021/06/23 01:40:16;;;;;;;20.87;18.20;;;15.60;99.90;;;;;;5093082;28;20959;-72
2021/06/23 01:42:42;;;;;;;18.50;16.63;;;15.60;99.90;;;;;;5095151;28;20527;-72
2021/06/23 01:45:08;;;;;;;29.70;16.93;;;15.70;99.90;;;;;;5095014;28;20185;-73
2021/06/23 01:47:33;;;;;;;23.33;17.77;;;15.60;99.90;;;;;;5094656;28;20234;-73
2021/06/23 01:50:00;;;;;;;19.07;17.03;;;15.50;99.90;;;;;;5094247;28;20423;-72
2021/06/23 01:52:26;;;;;;;20.80;16.40;;;15.40;99.90;;;;;;5094384;28;20680;-72
2021/06/23 01:54:52;;;;;;;21.60;18.13;;;15.50;99.90;;;;;;5094827;28;20482;-71
2021/06/23 01:57:19;;;;;;;18.20;16.60;;;15.40;99.90;;;;;;5094813;28;20184;-71
2021/06/23 01:59:46;;;;;;;18.67;16.77;;;15.40;99.90;;;;;;5093047;28;20519;-71
2021/06/23 02:02:30;;;;;;;18.73;16.83;;;15.20;99.90;;;;;;5094671;28;20467;-71
2021/06/23 02:05:28;;;;;;;20.00;17.90;;;15.20;99.90;;;;;;5094588;28;20475;-72
2021/06/23 02:08:07;;;;;;;20.23;17.57;;;15.20;99.90;;;;;;5097179;28;20448;-71
2021/06/23 02:10:52;;;;;;;21.80;17.43;;;15.30;99.90;;;;;;5094041;28;21468;-72
2021/06/23 02:13:36;;;;;;;21.40;18.37;;;15.40;99.90;;;;;;5094522;28;20421;-72
2021/06/23 02:16:08;;;;;;;21.83;18.37;;;15.40;99.90;;;;;;5093374;28;20442;-71
2021/06/23 02:18:34;;;;;;;20.27;17.80;;;15.50;99.90;;;;;;5094363;28;20436;-72
2021/06/23 02:21:02;;;;;;;20.20;18.10;;;15.60;99.90;;;;;;5092376;28;20421;-71
2021/06/23 02:23:28;;;;;;;19.90;17.97;;;15.60;99.90;;;;;;5073874;28;20517;-72
2021/06/23 02:25:54;;;;;;;19.40;17.40;;;15.60;99.90;;;;;;5073899;28;20952;-72
2021/06/23 02:28:21;;;;;;;20.30;18.27;;;15.60;99.90;;;;;;5073712;28;20172;-72
2021/06/23 02:30:47;;;;;;;24.93;18.70;;;15.70;99.90;;;;;;5073872;28;20205;-71
2021/06/23 02:33:13;;;;;;;21.27;19.10;;;15.50;99.90;;;;;;5088151;28;20770;-71
2021/06/23 02:35:40;;;;;;;20.93;18.73;;;15.50;99.90;;;;;;5094283;28;20419;-72
2021/06/23 02:38:06;;;;;;;20.33;18.23;;;15.40;99.90;;;;;;5093810;28;20418;-71
2021/06/23 02:40:33;;;;;;;20.77;18.57;;;15.40;99.90;;;;;;5094289;28;20545;-72
2021/06/23 02:42:59;;;;;;;21.53;19.27;;;15.40;99.90;;;;;;5090798;28;20423;-72
2021/06/23 02:45:26;;;;;;;21.00;18.90;;;15.20;99.90;;;;;;5093830;28;20435;-72
2021/06/23 02:47:52;;;;;;;20.37;18.10;;;15.20;99.90;;;;;;5092498;28;20464;-72
2021/06/23 02:50:18;;;;;;;19.80;16.83;;;15.20;99.90;;;;;;5093922;28;20415;-72
2021/06/23 02:52:44;;;;;;;18.87;16.87;;;15.10;99.90;;;;;;5092719;28;20541;-73
2021/06/23 02:55:10;;;;;;;18.93;16.93;;;15.20;99.90;;;;;;5093052;28;20442;-72
2021/06/23 02:57:36;;;;;;;18.80;17.00;;;15.30;99.90;;;;;;5093588;28;20212;-71
2021/06/23 03:00:05;;;;;;;19.80;16.00;;;15.30;99.90;;;;;;5093311;28;20474;-72
2021/06/23 03:02:30;;;;;;;18.40;16.23;;;15.40;99.90;;;;;;5093420;28;20415;-72
2021/06/23 03:04:56;;;;;;;17.77;16.07;;;15.50;99.90;;;;;;5087575;28;20993;-72
2021/06/23 03:07:22;;;;;;;18.57;16.33;;;15.30;99.90;;;;;;5093503;28;20179;-72
2021/06/23 03:09:48;;;;;;;19.07;17.07;;;15.30;99.90;;;;;;5093482;28;20626;-71
2021/06/23 03:12:16;;;;;;;17.73;15.93;;;15.30;99.90;;;;;;5093558;28;20406;-72
2021/06/23 03:14:43;;;;;;;18.37;15.80;;;15.40;99.90;;;;;;5087188;28;20193;-72
2021/06/23 03:17:09;;;;;;;19.37;17.20;;;15.40;99.90;;;;;;5073407;28;20400;-72
2021/06/23 03:19:35;;;;;;;21.40;15.93;;;15.50;99.90;;;;;;5072973;28;20458;-72
2021/06/23 03:22:05;;;;;;;20.33;15.53;;;15.50;99.90;;;;;;5075450;28;20392;-72
2021/06/23 03:24:31;;;;;;;18.83;15.27;;;15.60;99.90;;;;;;5073015;28;20169;-72
2021/06/23 03:26:57;;;;;;;21.63;15.83;;;15.60;99.90;;;;;;5092892;28;20422;-72
2021/06/23 03:29:27;;;;;;;17.20;15.47;;;15.60;99.90;;;;;;5097415;28;20196;-73
2021/06/23 03:31:53;;;;;;;17.93;15.63;;;15.60;99.90;;;;;;5097511;28;20169;-72
2021/06/23 03:34:18;;;;;;;24.33;18.07;;;15.40;99.90;;;;;;5097414;28;20489;-72
2021/06/23 03:36:44;;;;;;;19.30;17.23;;;15.40;99.90;;;;;;5085569;28;20778;-72
2021/06/23 03:39:10;;;;;;;18.40;16.30;;;15.40;99.90;;;;;;5084681;28;20213;-73
2021/06/23 03:41:35;;;;;;;23.03;17.40;;;15.40;99.90;;;;;;5097604;28;20192;-72
2021/06/23 03:44:01;;;;;;;19.23;16.77;;;15.50;99.90;;;;;;5099716;28;20215;-72
2021/06/23 03:46:26;;;;;;;17.73;15.93;;;15.50;99.90;;;;;;5100249;28;20189;-73
2021/06/23 03:48:52;;;;;;;19.20;16.73;;;15.50;99.90;;;;;;5097211;28;20234;-72
2021/06/23 03:51:18;;;;;;;26.40;16.43;;;15.50;99.90;;;;;;5097186;28;20216;-72
2021/06/23 03:53:44;;;;;;;21.70;16.37;;;15.50;99.90;;;;;;5097095;28;20888;-72
2021/06/23 03:56:09;;;;;;;19.43;16.57;;;15.40;99.90;;;;;;5096911;28;20196;-73
2021/06/23 03:58:35;;;;;;;20.70;16.30;;;15.30;99.90;;;;;;5094217;28;20562;-73
2021/06/23 04:01:00;;;;;;;18.50;15.80;;;15.30;99.90;;;;;;5097303;28;20165;-71
2021/06/23 04:03:26;;;;;;;19.13;17.10;;;15.40;99.90;;;;;;5096822;28;20487;-72
2021/06/23 04:05:51;;;;;;;21.53;17.50;;;15.30;99.90;;;;;;5096649;28;20284;-73
2021/06/23 04:08:17;;;;;;;19.87;16.93;;;15.30;99.90;;;;;;5088154;28;20185;-72
2021/06/23 04:10:42;;;;;;;16.90;15.20;;;15.20;99.90;;;;;;5076716;28;20215;-72
2021/06/23 04:13:08;;;;;;;17.70;15.80;;;15.20;99.90;;;;;;5076553;28;20197;-72
2021/06/23 04:15:33;;;;;;;23.00;16.57;;;15.20;99.90;;;;;;5076171;28;20189;-72
2021/06/23 04:17:59;;;;;;;21.33;16.87;;;15.30;99.90;;;;;;5076916;28;20173;-72
2021/06/23 04:20:24;;;;;;;20.77;15.97;;;15.40;99.90;;;;;;5096410;28;20287;-72
2021/06/23 04:22:50;;;;;;;17.70;15.87;;;15.40;99.90;;;;;;5096352;28;20598;-72
2021/06/23 04:25:16;;;;;;;18.10;15.63;;;15.40;99.90;;;;;;5096471;28;20186;-72
2021/06/23 04:27:41;;;;;;;19.10;16.70;;;15.30;99.90;;;;;;5096706;28;20521;-72
2021/06/23 04:30:12;;;;;;;18.73;16.77;;;15.20;99.90;;;;;;5094705;28;20199;-72
2021/06/23 04:32:38;;;;;;;17.43;15.73;;;15.30;99.90;;;;;;5096376;28;20406;-72
2021/06/23 04:35:06;;;;;;;18.53;16.57;;;15.40;99.90;;;;;;5096489;28;20462;-72
2021/06/23 04:37:36;;;;;;;21.10;17.27;;;15.40;99.90;;;;;;5096372;28;20399;-72
2021/06/23 04:40:04;;;;;;;19.77;15.93;;;15.30;99.90;;;;;;5086531;28;20447;-72
2021/06/23 04:42:30;;;;;;;19.27;16.53;;;15.40;99.90;;;;;;5075795;28;20775;-72
2021/06/23 04:44:56;;;;;;;18.30;15.73;;;15.40;99.90;;;;;;5082903;28;20453;-72
2021/06/23 04:47:21;;;;;;;18.20;16.30;;;15.40;99.90;;;;;;5078870;28;20630;-72
2021/06/23 04:49:47;;;;;;;17.83;15.93;;;15.40;99.90;;;;;;5090074;28;20259;-72
2021/06/23 04:52:12;;;;;;;17.37;15.57;;;15.50;99.90;;;;;;5084555;28;20200;-73
2021/06/23 04:54:38;;;;;;;16.73;14.93;;;15.50;99.90;;;;;;5088448;28;20537;-72
2021/06/23 04:57:05;;;;;;;22.03;16.73;;;15.40;99.90;;;;;;5086927;28;20193;-72
2021/06/23 04:59:31;;;;;;;19.17;17.17;;;15.40;99.90;;;;;;5083708;28;20194;-72
2021/06/23 05:01:57;;;;;;;19.43;16.20;;;15.50;99.90;;;;;;5078767;28;20592;-72
2021/06/23 05:04:22;;;;;;;18.83;16.20;;;15.40;99.90;;;;;;5075204;28;20408;-73
2021/06/23 05:06:48;;;;;;;18.90;16.37;;;15.40;99.90;;;;;;5082673;28;20203;-72
2021/06/23 05:09:13;;;;;;;20.63;17.10;;;15.20;99.90;;;;;;5079114;28;20457;-72
2021/06/23 05:11:39;;;;;;;24.70;16.50;;;15.10;99.90;;;;;;5086962;28;20195;-72
2021/06/23 05:14:06;;;;;;;20.20;16.47;;;15.20;99.90;;;;;;5093753;28;20169;-73
2021/06/23 05:16:33;;;;;;;18.17;15.93;;;15.20;99.90;;;;;;5079443;28;20451;-72
2021/06/23 05:18:59;;;;;;;19.63;15.20;;;15.10;99.90;;;;;;5082449;28;20519;-72
2021/06/23 05:21:25;;;;;;;18.60;15.03;;;15.00;99.90;;;;;;5083361;28;20442;-72
2021/06/23 05:23:50;;;;;;;18.87;15.30;;;15.00;99.90;;;;;;5084656;28;20176;-72
2021/06/23 05:26:16;;;;;;;19.43;16.40;;;15.00;99.90;;;;;;5092250;28;20196;-71
2021/06/23 05:28:42;;;;;;;16.57;14.97;;;15.00;99.90;;;;;;5092465;28;20633;-72
2021/06/23 05:31:07;;;;;;;23.70;17.20;;;15.10;99.90;;;;;;5080493;28;20189;-72
2021/06/23 05:33:33;;;;;;;17.10;14.87;;;15.10;99.90;;;;;;5082223;28;20224;-72
2021/06/23 05:35:58;;;;;;;20.03;15.70;;;15.10;99.90;;;;;;5077935;28;20203;-72
2021/06/23 05:38:24;;;;;;;20.20;16.10;;;15.10;99.90;;;;;;5084426;28;20292;-72
2021/06/23 05:40:50;;;;;;;16.83;15.13;;;15.10;99.90;;;;;;5088520;28;20258;-72
2021/06/23 05:43:16;;;;;;;18.30;15.40;;;15.10;99.90;;;;;;5090043;28;20947;-75
2021/06/23 05:45:41;;;;;;;16.03;14.37;;;15.30;99.90;;;;;;5085964;28;20271;-73
2021/06/23 05:48:08;;;;;;;17.83;14.10;;;15.40;99.90;;;;;;5089925;28;20172;-73
2021/06/23 05:50:33;;;;;;;17.77;15.00;;;15.40;99.90;;;;;;5078058;28;20273;-72
2021/06/23 05:52:59;;;;;;;17.80;15.90;;;15.20;99.90;;;;;;5080184;28;21023;-71
2021/06/23 05:55:25;;;;;;;19.13;15.50;;;15.30;99.90;;;;;;5076461;28;20677;-71
2021/06/23 05:57:55;;;;;;;19.10;14.70;;;15.30;99.90;;;;;;5089730;28;20544;-74
2021/06/23 06:00:22;;;;;;;15.50;13.87;;;15.40;99.90;;;;;;5086774;28;20197;-73
2021/06/23 06:02:48;;;;;;;21.43;15.43;;;15.40;99.90;;;;;;5089633;28;20423;-73
2021/06/23 06:05:15;;;;;;;17.20;14.97;;;15.50;99.90;;;;;;5091800;28;20431;-73
2021/06/23 06:07:41;;;;;;;17.07;15.37;;;15.30;99.90;;;;;;5091226;28;20442;-72
2021/06/23 06:10:07;;;;;;;16.67;14.90;;;15.40;99.90;;;;;;5078671;28;20427;-73
2021/06/23 06:12:33;;;;;;;17.73;15.37;;;15.50;99.90;;;;;;5090074;28;20438;-73
2021/06/23 06:14:58;;;;;;;17.80;15.17;;;15.50;99.90;;;;;;5089710;28;20435;-73
2021/06/23 06:17:24;;;;;;;21.67;15.63;;;15.50;99.90;;;;;;5090340;28;20637;-73
2021/06/23 06:19:50;;;;;;;16.20;14.50;;;15.70;99.90;;;;;;5091592;28;20333;-72
2021/06/23 06:22:15;;;;;;;17.50;14.80;;;15.80;99.90;;;;;;5088522;28;20538;-74
2021/06/23 06:24:41;;;;;;;19.10;15.87;;;16.00;99.90;;;;;;5091663;28;20633;-72
2021/06/23 06:27:07;;;;;;;18.00;15.30;;;16.10;99.90;;;;;;5093596;28;20169;-74
2021/06/23 06:29:33;;;;;;;20.90;15.40;;;16.00;99.90;;;;;;5101709;28;20179;-74
2021/06/23 06:31:58;;;;;;;18.60;15.73;;;16.00;99.90;;;;;;5106888;28;20494;-74
2021/06/23 06:34:24;;;;;;;17.27;15.50;;;16.00;99.90;;;;;;5090486;28;20200;-72
2021/06/23 06:36:49;;;;;;;18.57;16.03;;;16.10;99.90;;;;;;5095280;28;20213;-73
2021/06/23 06:39:15;;;;;;;21.37;16.17;;;16.10;99.90;;;;;;5077463;28;20862;-73
2021/06/23 06:41:41;;;;;;;15.90;14.07;;;16.20;99.90;;;;;;5075041;28;20702;-73
2021/06/23 06:44:06;;;;;;;21.00;16.13;;;16.30;99.90;;;;;;5076818;28;20544;-72
2021/06/23 06:46:32;;;;;;;20.50;16.30;;;16.30;99.90;;;;;;5071214;28;20447;-73
2021/06/23 06:48:58;;;;;;;22.00;19.80;;;16.30;99.90;;;;;;5089700;28;20544;-73
2021/06/23 06:51:23;;;;;;;19.33;16.92;;;16.20;99.90;;;;;;5079886;28;20472;-73
2021/06/23 06:53:49;;;;;;;18.33;16.47;;;16.00;99.90;;;;;;5087886;28;20193;-73
2021/06/23 06:56:16;;;;;;;19.33;17.00;;;16.00;99.90;;;;;;5092109;28;20716;-73
2021/06/23 06:58:41;;;;;;;22.90;17.03;;;16.00;99.90;;;;;;5092357;28;20193;-73
2021/06/23 07:01:08;;;;;;;24.70;17.97;;;15.80;99.90;;;;;;5081825;28;20434;-76
2021/06/23 07:03:33;;;;;;;19.70;16.90;;;15.80;99.90;;;;;;5078706;28;20264;-74
2021/06/23 07:05:59;;;;;;;27.03;18.70;;;15.70;99.90;;;;;;5089146;28;20648;-74
2021/06/23 07:08:24;;;;;;;19.77;17.67;;;15.70;99.90;;;;;;5077333;28;20192;-73
2021/06/23 07:10:50;;;;;;;26.77;18.37;;;15.80;99.90;;;;;;5071389;28;20268;-73
2021/06/23 07:13:15;;;;;;;23.70;17.97;;;15.90;99.90;;;;;;5091021;28;20245;-73
2021/06/23 07:15:41;;;;;;;18.40;15.87;;;16.10;99.90;;;;;;5082995;28;20280;-72
2021/06/23 07:18:06;;;;;;;20.83;17.10;;;16.20;99.90;;;;;;5070870;28;20196;-73
2021/06/23 07:20:32;;;;;;;23.03;16.60;;;16.30;99.90;;;;;;5086390;28;20208;-73
2021/06/23 07:22:58;;;;;;;19.23;17.20;;;16.40;99.90;;;;;;5089874;28;20219;-73
2021/06/23 07:25:23;;;;;;;18.97;16.90;;;16.50;99.90;;;;;;5089754;28;20261;-73
2021/06/23 07:27:49;;;;;;;19.83;17.60;;;16.50;99.90;;;;;;5081090;28;20209;-74
2021/06/23 07:30:16;;;;;;;21.63;17.00;;;16.50;99.90;;;;;;5070247;28;20193;-73
2021/06/23 07:32:47;;;;;;;22.40;17.00;;;16.50;99.90;;;;;;5086451;28;20184;-73
2021/06/23 07:37:57;;;;;;;23.77;18.40;;;16.60;99.90;;;;;;5091422;28;20422;-72
2021/06/23 07:40:42;;;;;;;17.60;15.80;;;16.70;99.90;;;;;;5110757;28;20958;-73
2021/06/23 07:43:07;;;;;;;19.00;16.80;;;16.80;99.90;;;;;;5078343;28;20181;-73
2021/06/23 07:45:35;;;;;;;22.47;18.73;;;16.90;99.90;;;;;;5089905;28;20480;-74
2021/06/23 07:48:01;;;;;;;19.80;17.10;;;17.00;99.90;;;;;;5081079;28;20270;-72
2021/06/23 07:50:33;;;;;;;19.07;16.37;;;17.10;99.90;;;;;;5085295;28;20559;-73
2021/06/23 07:53:19;;;;;;;18.87;16.47;;;17.00;99.90;;;;;;5088161;28;20176;-73
2021/06/23 07:55:56;;;;;;;19.17;16.33;;;16.90;99.90;;;;;;5089840;28;20426;-73
2021/06/23 08:09:27;;;;;;;24.63;17.33;;;17.10;99.90;;;;;;5089365;28;20443;-73
2021/06/23 08:12:05;;;;;;;26.20;18.07;;;16.90;99.90;;;;;;5088337;28;20419;-72
2021/06/23 08:14:31;;;;;;;18.90;16.90;;;16.80;99.90;;;;;;5092923;28;20761;-74
2021/06/23 08:16:56;;;;;;;20.57;17.27;;;16.70;99.90;;;;;;5090791;28;20454;-73
2021/06/23 08:19:22;;;;;;;18.80;15.77;;;16.70;99.90;;;;;;5075207;28;20273;-72
2021/06/23 08:21:47;;;;;;;19.77;16.20;;;16.80;99.90;;;;;;5081695;28;20175;-73
2021/06/23 08:24:13;;;;;;;18.40;16.50;;;17.00;99.90;;;;;;5092530;28;20472;-73
2021/06/23 08:26:39;;;;;;;19.13;16.80;;;17.10;99.90;;;;;;5093131;28;20193;-74
2021/06/23 08:29:04;;;;;;;24.13;16.83;;;17.30;99.90;;;;;;5090291;28;20185;-74
2021/06/23 08:31:30;;;;;;;19.47;17.37;;;17.40;99.90;;;;;;5092624;28;20421;-74
2021/06/23 08:33:58;;;;;;;17.10;15.40;;;17.60;99.90;;;;;;5092939;28;20201;-73
2021/06/23 08:36:24;;;;;;;18.17;14.97;;;17.70;99.90;;;;;;5078801;28;20280;-74
2021/06/23 08:38:51;;;;;;;17.60;15.70;;;17.70;99.90;;;;;;5090108;28;20967;-73
2021/06/23 08:41:16;;;;;;;17.70;16.00;;;17.80;99.90;;;;;;5089462;28;20172;-73
2021/06/23 08:43:42;;;;;;;23.13;15.60;;;17.80;99.90;;;;;;5092945;28;21026;-74
2021/06/23 08:46:08;;;;;;;17.93;15.73;;;17.90;99.90;;;;;;5091464;28;20196;-73
2021/06/23 08:48:34;;;;;;;17.00;15.30;;;17.80;99.90;;;;;;5091389;28;20705;-73
2021/06/23 08:51:07;;;;;;;15.77;14.27;;;18.00;99.90;;;;;;5090784;28;20193;-73
2021/06/23 08:53:34;;;;;;;17.20;15.40;;;18.10;99.90;;;;;;5089150;28;20908;-73
2021/06/23 08:56:00;;;;;;;17.27;15.30;;;18.10;99.90;;;;;;5083193;28;20508;-74
2021/06/23 08:58:26;;;;;;;18.80;16.80;;;18.20;99.90;;;;;;5086468;28;21238;-74
2021/06/23 09:00:53;;;;;;;18.90;17.00;;;18.40;99.90;;;;;;5091919;28;20507;-73
2021/06/23 09:03:19;;;;;;;18.10;16.30;;;18.50;99.90;;;;;;5085724;28;20462;-73
2021/06/23 09:05:47;;;;;;;15.40;13.80;;;18.70;99.90;;;;;;5072946;28;20451;-73
2021/06/23 09:08:12;;;;;;;20.10;17.90;;;18.90;99.90;;;;;;5081893;28;20230;-73
2021/06/23 09:10:38;;;;;;;19.97;15.77;;;19.10;99.90;;;;;;5091036;28;20516;-73
2021/06/23 09:13:03;;;;;;;17.33;15.60;;;19.00;99.90;;;;;;5088162;28;20226;-74
2021/06/23 09:15:44;;;;;;;18.70;16.83;;;18.90;99.90;;;;;;5071484;28;20201;-74
2021/06/23 09:18:36;;;;;;;16.57;14.87;;;18.80;99.90;;;;;;5071088;28;20173;-74
2021/06/23 09:21:06;;;;;;;17.43;15.63;;;19.10;99.90;;;;;;5088926;28;20504;-74
2021/06/23 09:23:52;;;;;;;18.03;15.00;;;19.20;99.90;;;;;;5091370;28;20415;-74
2021/06/23 09:26:24;;;;;;;17.03;15.23;;;19.40;99.90;;;;;;5091560;28;20445;-74
2021/06/23 09:29:06;;;;;;;17.90;16.20;;;19.50;99.90;;;;;;5076875;28;20579;-73
2021/06/23 09:32:02;;;;;;;19.00;15.77;;;19.50;99.90;;;;;;5078852;28;20463;-73
2021/06/23 09:34:39;;;;;;;18.23;15.77;;;19.50;99.90;;;;;;5051814;28;20498;-73
2021/06/23 09:37:26;;;;;;;17.20;15.50;;;19.40;99.90;;;;;;5032395;28;20444;-73
2021/06/23 09:40:22;;;;;;;17.60;16.00;;;19.40;99.90;;;;;;5048822;28;20460;-73
2021/06/23 09:42:55;;;;;;;16.53;14.83;;;19.50;99.90;;;;;;5045636;28;20559;-74
2021/06/23 09:45:20;;;;;;;20.27;16.90;;;19.60;99.90;;;;;;5049313;28;20452;-73
2021/06/23 09:47:48;;;;;;;18.03;15.13;;;19.60;99.90;;;;;;5032778;28;20417;-73
2021/06/23 09:50:23;;;;;;;17.70;15.67;;;19.60;99.90;;;;;;5035387;28;20185;-73
2021/06/23 09:52:57;;;;;;;15.43;14.00;;;19.50;99.90;;;;;;5055859;28;20463;-72
2021/06/23 09:55:37;;;;;;;15.03;13.67;;;19.60;99.90;;;;;;5066009;28;20451;-73
2021/06/23 09:58:07;;;;;;;15.37;13.63;;;19.50;99.90;;;;;;5040935;28;20449;-74
2021/06/23 10:00:34;;;;;;;18.17;13.60;;;19.20;99.90;;;;;;5049375;28;20457;-73
2021/06/23 10:03:06;;;;;;;16.53;14.60;;;19.40;99.90;;;;;;5048816;28;20428;-74
2021/06/23 10:05:32;;;;;;;19.50;14.80;;;19.40;99.90;;;;;;5031808;28;20437;-73
2021/06/23 10:07:57;;;;;;;16.67;14.20;;;19.40;99.90;;;;;;5048282;28;20515;-73
2021/06/23 10:10:40;;;;;;;18.07;14.77;;;19.70;99.90;;;;;;5055341;28;20767;-74
2021/06/23 10:13:06;;;;;;;18.40;15.33;;;19.90;99.90;;;;;;5092178;28;20198;-73
2021/06/23 10:15:32;;;;;;;15.53;14.03;;;20.10;99.90;;;;;;5091865;28;20528;-73
2021/06/23 10:17:57;;;;;;;17.10;15.50;;;20.00;99.90;;;;;;5083957;28;20727;-72
2021/06/23 10:20:23;;;;;;;16.97;14.70;;;20.00;99.90;;;;;;5077199;28;20820;-73
2021/06/23 10:22:50;;;;;;;19.83;15.60;;;19.60;99.90;;;;;;5086735;28;20299;-73
2021/06/23 10:25:18;;;;;;;16.00;14.37;;;19.80;99.90;;;;;;5088352;28;20528;-73
2021/06/23 10:27:52;;;;;;;16.60;14.80;;;20.00;99.90;;;;;;5076766;28;20946;-73
2021/06/23 10:30:18;;;;;;;16.30;14.70;;;20.10;99.90;;;;;;5090263;28;20506;-75
2021/06/23 10:32:47;;;;;;;17.13;14.53;;;20.10;99.90;;;;;;5091312;28;20399;-74
2021/06/23 10:35:14;;;;;;;15.27;13.67;;;20.20;99.90;;;;;;5074147;28;20928;-72
2021/06/23 10:37:41;;;;;;;15.90;14.13;;;20.10;99.90;;;;;;5081681;28;20421;-73
2021/06/23 10:40:09;;;;;;;16.20;14.80;;;19.90;99.90;;;;;;5091094;28;20466;-72
2021/06/23 10:42:36;;;;;;;15.83;14.33;;;19.60;99.90;;;;;;5090831;28;20806;-72
2021/06/23 10:45:03;;;;;;;14.30;12.90;;;19.60;99.90;;;;;;5091911;28;20466;-72
2021/06/23 10:47:45;;;;;;;15.57;13.97;;;19.80;99.90;;;;;;5091373;28;20423;-73
2021/06/23 10:50:17;;;;;;;18.73;12.97;;;20.00;99.90;;;;;;5077551;28;20450;-73
2021/06/23 10:52:44;;;;;;;19.07;14.67;;;20.40;99.90;;;;;;5076858;28;20485;-73
2021/06/23 10:55:22;;;;;;;18.23;14.77;;;20.00;99.90;;;;;;5082677;28;20492;-72
2021/06/23 10:58:09;;;;;;;17.30;15.07;;;19.90;99.90;;;;;;5088104;28;20454;-72
2021/06/23 11:00:35;;;;;;;15.40;13.40;;;20.10;99.90;;;;;;5086391;28;20461;-72
2021/06/23 11:03:14;;;;;;;17.53;15.63;;;20.20;99.90;;;;;;5074013;28;20434;-71
2021/06/23 11:05:41;;;;;;;21.40;14.20;;;20.30;99.90;;;;;;5077590;28;20446;-73
2021/06/23 11:08:23;;;;;;;15.67;14.10;;;20.00;99.90;;;;;;5081257;28;20748;-73
2021/06/23 11:10:50;;;;;;;14.67;13.27;;;19.90;99.90;;;;;;5082563;28;20541;-73
2021/06/23 11:13:24;;;;;;;16.33;14.13;;;19.80;99.90;;;;;;5090634;28;20400;-73
2021/06/23 11:15:54;;;;;;;15.77;14.13;;;19.70;99.90;;;;;;5090921;28;20438;-73
2021/06/23 11:18:24;;;;;;;14.80;13.30;;;19.90;99.90;;;;;;5088541;28;20821;-73
2021/06/23 11:20:58;;;;;;;17.13;13.87;;;20.20;99.90;;;;;;5087440;28;20453;-73
2021/06/23 11:23:52;;;;;;;15.57;13.93;;;20.50;99.90;;;;;;5090309;28;20403;-73
2021/06/23 11:26:21;;;;;;;14.33;12.70;;;20.40;99.90;;;;;;5069793;28;21087;-73
2021/06/23 11:28:47;;;;;;;17.15;15.35;;;20.40;99.90;;;;;;5086303;28;20397;-73
2021/06/23 11:31:13;;;;;;;17.33;15.60;;;20.50;99.90;;;;;;5085811;28;20207;-73
2021/06/23 11:33:39;;;;;;;15.80;14.50;;;20.30;99.90;;;;;;5089336;28;20501;-73
2021/06/23 11:36:07;;;;;;;16.47;14.20;;;20.00;99.90;;;;;;5088040;28;20192;-72
2021/06/23 11:38:33;;;;;;;14.43;12.93;;;20.00;99.90;;;;;;5088539;28;20245;-72
2021/06/23 11:41:00;;;;;;;16.77;14.00;;;20.10;99.90;;;;;;5089385;28;20936;-72
2021/06/23 11:43:26;;;;;;;17.40;12.73;;;20.00;99.90;;;;;;5089517;28;20476;-73
2021/06/23 11:45:52;;;;;;;16.83;15.13;;;20.20;99.90;;;;;;5080062;28;20856;-72
2021/06/23 11:48:18;;;;;;;17.87;14.73;;;20.40;99.90;;;;;;5091332;28;20226;-73
2021/06/23 11:50:48;;;;;;;16.17;14.33;;;20.40;99.90;;;;;;5094002;28;20802;-73
2021/06/23 11:53:16;;;;;;;19.03;14.60;;;20.60;99.90;;;;;;5078940;28;20426;-73
2021/06/23 11:55:43;;;;;;;16.43;13.20;;;20.90;99.90;;;;;;5093472;28;20517;-72
2021/06/23 11:58:08;;;;;;;15.00;13.60;;;21.00;99.90;;;;;;5093505;28;20503;-72
2021/06/23 12:00:36;;;;;;;18.40;14.33;;;21.30;99.90;;;;;;5093511;28;20466;-72
2021/06/23 12:03:02;;;;;;;13.90;12.50;;;21.10;99.90;;;;;;5093619;28;20264;-73
2021/06/23 12:05:29;;;;;;;18.13;14.03;;;21.20;99.90;;;;;;5074536;28;20435;-72
2021/06/23 12:07:56;;;;;;;15.83;13.20;;;21.20;99.90;;;;;;5083309;28;20534;-73
2021/06/23 12:10:24;;;;;;;12.27;11.07;;;21.10;99.90;;;;;;5092134;28;20958;-72
2021/06/23 12:12:51;;;;;;;13.37;12.07;;;21.20;99.90;;;;;;5092822;28;20525;-72
2021/06/23 12:15:20;;;;;;;18.77;13.80;;;21.40;99.80;;;;;;5086886;28;20502;-71
2021/06/23 12:17:57;;;;;;;15.80;13.90;;;21.20;99.50;;;;;;5091822;28;20430;-74
2021/06/23 12:20:24;;;;;;;13.40;11.93;;;20.90;99.50;;;;;;5092937;28;20461;-73
2021/06/23 12:22:56;;;;;;;14.23;12.10;;;20.80;99.90;;;;;;5093153;28;20831;-73
2021/06/23 12:25:31;;;;;;;14.80;12.13;;;21.10;99.90;;;;;;5090535;28;20454;-73
2021/06/23 12:27:58;;;;;;;16.13;13.20;;;21.10;99.70;;;;;;5084433;28;20416;-73
2021/06/23 12:30:28;;;;;;;14.00;10.70;;;21.30;99.20;;;;;;5093464;28;20773;-73
2021/06/23 12:32:58;;;;;;;15.63;14.20;;;21.50;99.30;;;;;;5092855;28;20425;-73
2021/06/23 12:35:27;;;;;;;13.53;12.33;;;21.30;98.70;;;;;;5091527;28;20545;-73
2021/06/23 12:37:53;;;;;;;16.00;13.40;;;21.30;98.90;;;;;;5082313;28;20517;-73
2021/06/23 12:40:20;;;;;;;18.77;15.10;;;21.20;99.20;;;;;;5093219;28;21178;-73
2021/06/23 12:42:46;;;;;;;14.87;13.47;;;21.10;99.00;;;;;;5077848;28;20494;-72
2021/06/23 12:45:12;;;;;;;15.10;13.57;;;21.20;99.20;;;;;;5077879;28;20502;-73
2021/06/23 12:47:37;;;;;;;15.03;13.63;;;21.30;99.60;;;;;;5086183;28;20211;-73